createdAt,value
2022-11-15T00:00:57.466Z,13.07
2022-11-15T00:03:28.870Z,13.45
2022-11-15T00:05:55.842Z,12.85
2022-11-15T00:08:22.403Z,14.10
2022-11-15T00:11:00.249Z,9.73
2022-11-15T00:13:27.149Z,13.93
2022-11-15T00:15:53.864Z,13.93
2022-11-15T00:18:20.462Z,13.85
2022-11-15T00:20:47.055Z,12.05
2022-11-15T00:23:13.554Z,10.50
2022-11-15T00:25:40.271Z,13.77
2022-11-15T00:28:06.921Z,13.68
2022-11-15T00:30:33.795Z,14.10
2022-11-15T00:33:04.803Z,13.40
2022-11-15T00:35:35.333Z,13.65
2022-11-15T00:38:02.871Z,14.20
2022-11-15T00:40:29.718Z,13.90
2022-11-15T00:42:56.506Z,13.40
2022-11-15T00:45:23.368Z,13.70
2022-11-15T00:47:49.888Z,14.00
2022-11-15T00:50:16.606Z,12.98
2022-11-15T00:52:43.456Z,13.48
2022-11-15T00:55:17.629Z,13.30
2022-11-15T00:57:44.275Z,13.10
2022-11-15T01:00:11.564Z,13.27
2022-11-15T01:05:05.332Z,13.55
2022-11-15T01:07:31.928Z,14.25
2022-11-15T01:09:58.481Z,9.63
2022-11-15T01:12:24.999Z,9.93
2022-11-15T01:14:51.510Z,13.70
2022-11-15T01:17:18.066Z,15.57
2022-11-15T01:19:44.822Z,9.75
2022-11-15T01:22:11.374Z,14.88
2022-11-15T01:24:37.951Z,14.47
2022-11-15T01:27:04.522Z,14.77
2022-11-15T01:29:31.031Z,14.32
2022-11-15T01:31:57.498Z,12.57
2022-11-15T01:34:24.009Z,17.60
2022-11-15T01:36:50.627Z,15.48
2022-11-15T01:39:17.789Z,14.93
2022-11-15T01:41:44.878Z,15.93
2022-11-15T01:44:29.430Z,15.07
2022-11-15T01:46:55.985Z,14.70
2022-11-15T01:49:24.670Z,16.25
2022-11-15T01:51:51.602Z,15.15
2022-11-15T01:54:21.927Z,15.45
2022-11-15T01:56:53.081Z,15.23
2022-11-15T01:59:20.568Z,15.73
2022-11-15T02:01:47.420Z,15.88
2022-11-15T02:04:29.536Z,16.02
2022-11-15T02:06:56.107Z,14.65
2022-11-15T02:09:22.657Z,15.88
2022-11-15T02:11:51.518Z,11.50
2022-11-15T02:14:21.002Z,15.00
2022-11-15T02:16:47.484Z,14.18
2022-11-15T02:19:32.453Z,15.02
2022-11-15T02:22:17.772Z,15.00
2022-11-15T02:25:11.059Z,14.90
2022-11-15T02:27:40.405Z,15.20
2022-11-15T02:30:37.398Z,15.23
2022-11-15T02:33:28.230Z,15.57
2022-11-15T02:36:01.983Z,14.90
2022-11-15T02:38:51.561Z,14.65
2022-11-15T02:41:25.055Z,15.05
2022-11-15T02:44:05.949Z,14.50
2022-11-15T02:47:11.722Z,16.20
2022-11-15T02:49:38.719Z,15.48
2022-11-15T02:52:05.415Z,15.15
2022-11-15T02:54:33.766Z,15.68
2022-11-15T02:57:08.194Z,15.75
2022-11-15T02:59:53.385Z,15.77
2022-11-15T03:02:38.715Z,14.32
2022-11-15T03:05:26.290Z,14.73
2022-11-15T03:08:04.704Z,13.93
2022-11-15T03:10:38.538Z,13.38
2022-11-15T03:13:14.252Z,14.07
2022-11-15T03:16:22.494Z,16.58
2022-11-15T03:18:57.866Z,16.50
2022-11-15T03:21:26.097Z,17.73
2022-11-15T03:23:56.183Z,16.30
2022-11-15T03:26:25.731Z,17.27
2022-11-15T03:28:58.701Z,17.45
2022-11-15T03:31:50.530Z,17.58
2022-11-15T03:34:47.026Z,17.00
2022-11-15T03:37:16.456Z,17.15
2022-11-15T03:39:44.284Z,15.65
2022-11-15T03:42:32.544Z,13.68
2022-11-15T03:45:13.201Z,14.15
2022-11-15T03:47:59.876Z,13.93
2022-11-15T03:50:27.668Z,15.05
2022-11-15T03:52:56.012Z,14.63
2022-11-15T03:55:22.925Z,14.70
2022-11-15T03:57:54.103Z,15.35
2022-11-15T04:00:20.702Z,15.38
2022-11-15T04:02:47.238Z,15.52
2022-11-15T04:05:13.774Z,14.82
2022-11-15T04:07:40.405Z,10.88
2022-11-15T04:10:07.896Z,13.65
2022-11-15T04:12:37.056Z,14.50
2022-11-15T04:15:09.285Z,14.98
2022-11-15T04:17:40.095Z,16.52
2022-11-15T04:20:40.539Z,15.75
2022-11-15T04:23:34.330Z,16.17
2022-11-15T04:26:05.409Z,17.13
2022-11-15T04:28:32.075Z,17.77
2022-11-15T04:30:58.563Z,15.23
2022-11-15T04:33:25.107Z,18.40
2022-11-15T04:36:10.183Z,18.33
2022-11-15T04:38:38.369Z,18.85
2022-11-15T04:41:05.039Z,17.60
2022-11-15T04:43:32.154Z,17.58
2022-11-15T04:45:58.987Z,32.38
2022-11-15T04:48:25.517Z,57.38
2022-11-15T04:50:52.021Z,40.90
2022-11-15T04:53:18.540Z,67.87
2022-11-15T04:55:47.937Z,54.88
2022-11-15T04:58:14.573Z,58.25
2022-11-15T05:00:41.225Z,23.30
2022-11-15T05:03:28.372Z,28.02
2022-11-15T05:05:55.338Z,23.73
2022-11-15T05:08:21.906Z,22.63
2022-11-15T05:10:48.840Z,22.50
2022-11-15T05:13:15.408Z,22.20
2022-11-15T05:15:41.943Z,16.15
2022-11-15T05:18:08.529Z,16.00
2022-11-15T05:20:35.080Z,20.27
2022-11-15T05:23:01.595Z,15.20
2022-11-15T05:25:28.304Z,19.73
2022-11-15T05:27:55.086Z,15.43
2022-11-15T05:30:21.594Z,17.58
2022-11-15T05:32:48.709Z,17.25
2022-11-15T05:35:33.525Z,29.95
2022-11-15T05:38:00.183Z,30.25
2022-11-15T05:40:28.567Z,33.53
2022-11-15T05:42:55.240Z,35.35
2022-11-15T05:45:26.761Z,36.42
2022-11-15T05:47:57.923Z,37.25
2022-11-15T05:50:24.719Z,21.83
2022-11-15T05:52:52.407Z,19.67
2022-11-15T05:55:19.141Z,20.45
2022-11-15T05:57:45.983Z,28.25
2022-11-15T06:00:13.342Z,25.38
2022-11-15T06:05:06.548Z,18.30
2022-11-15T06:07:33.192Z,18.77
2022-11-15T06:10:00.048Z,12.32
2022-11-15T06:12:26.610Z,15.75
2022-11-15T06:14:53.107Z,16.33
2022-11-15T06:17:19.604Z,18.00
2022-11-15T06:19:46.138Z,13.88
2022-11-15T06:22:12.664Z,13.02
2022-11-15T06:24:39.211Z,15.90
2022-11-15T06:27:05.784Z,15.63
2022-11-15T06:29:32.267Z,15.35
2022-11-15T06:31:58.777Z,15.87
2022-11-15T06:34:25.524Z,14.20
2022-11-15T06:36:52.081Z,10.23
2022-11-15T06:39:18.603Z,10.65
2022-11-15T06:41:45.156Z,15.07
2022-11-15T06:44:11.699Z,16.15
2022-11-15T06:46:38.252Z,19.58
2022-11-15T06:49:09.357Z,17.75
2022-11-15T06:51:36.470Z,14.95
2022-11-15T06:54:03.152Z,14.00
2022-11-15T06:56:29.723Z,14.48
2022-11-15T06:58:56.727Z,14.30
2022-11-15T07:01:23.490Z,12.75
2022-11-15T07:03:50.044Z,15.57
2022-11-15T07:06:16.611Z,18.05
2022-11-15T07:08:44.260Z,18.67
2022-11-15T07:11:10.783Z,15.85
2022-11-15T07:13:38.350Z,22.58
2022-11-15T07:16:07.049Z,22.85
2022-11-15T07:18:37.863Z,23.05
2022-11-15T07:21:05.673Z,24.95
2022-11-15T07:23:33.364Z,23.80
2022-11-15T07:26:01.117Z,23.45
2022-11-15T07:28:28.288Z,23.92
2022-11-15T07:30:55.696Z,23.75
2022-11-15T07:33:22.677Z,24.95
2022-11-15T07:35:52.118Z,22.77
2022-11-15T07:38:21.531Z,21.08
2022-11-15T07:40:48.588Z,19.80
2022-11-15T07:43:15.209Z,21.77
2022-11-15T07:45:46.341Z,22.02
2022-11-15T07:48:12.845Z,21.25
2022-11-15T07:50:42.659Z,22.40
2022-11-15T07:53:10.524Z,28.23
2022-11-15T07:55:37.480Z,24.40
2022-11-15T07:58:06.176Z,24.50
2022-11-15T08:00:33.913Z,24.63
2022-11-15T08:03:12.023Z,25.08
2022-11-15T08:05:40.282Z,23.75
2022-11-15T08:08:08.354Z,23.58
2022-11-15T08:10:40.296Z,26.13
2022-11-15T08:13:12.046Z,24.60
2022-11-15T08:15:39.299Z,37.03
2022-11-15T08:18:16.512Z,25.02
2022-11-15T08:25:38.090Z,23.42
2022-11-15T08:28:06.902Z,22.27
2022-11-15T08:30:43.097Z,22.27
2022-11-15T08:33:14.325Z,21.93
2022-11-15T08:35:42.188Z,22.55
2022-11-15T08:38:09.423Z,21.98
2022-11-15T08:40:36.918Z,23.08
2022-11-15T08:45:31.186Z,21.80
2022-11-15T08:47:57.796Z,22.20
2022-11-15T08:50:24.455Z,23.10
2022-11-15T08:52:51.080Z,22.38
2022-11-15T08:55:17.902Z,23.33
2022-11-15T08:57:44.725Z,25.00
2022-11-15T09:00:12.847Z,24.05
2022-11-15T09:02:40.237Z,25.60
2022-11-15T09:07:33.952Z,25.05
2022-11-15T09:10:01.088Z,26.48
2022-11-15T09:12:27.602Z,23.83
2022-11-15T09:14:54.193Z,23.50
2022-11-15T09:17:24.745Z,23.25
2022-11-15T09:19:51.921Z,35.13
2022-11-15T09:22:18.873Z,26.48
2022-11-15T09:24:45.538Z,23.77
2022-11-15T09:29:56.472Z,23.15
2022-11-15T09:32:26.025Z,23.30
2022-11-15T09:34:52.660Z,22.48
2022-11-15T09:37:19.169Z,22.20
2022-11-15T09:39:45.682Z,20.67
2022-11-15T09:42:41.499Z,21.97
2022-11-15T09:45:16.896Z,20.48
2022-11-15T09:48:04.652Z,20.52
2022-11-15T09:50:47.956Z,18.48
2022-11-15T09:53:50.765Z,19.00
2022-11-15T09:56:31.874Z,19.50
2022-11-15T09:59:07.199Z,18.35
2022-11-15T10:01:55.810Z,24.48
2022-11-15T10:04:24.791Z,19.30
2022-11-15T10:07:05.371Z,17.83
2022-11-15T10:09:50.267Z,18.73
2022-11-15T10:12:17.453Z,18.50
2022-11-15T10:14:50.305Z,18.05
2022-11-15T10:17:28.762Z,19.42
2022-11-15T10:20:20.030Z,20.30
2022-11-15T10:23:01.166Z,19.67
2022-11-15T10:25:33.210Z,21.67
2022-11-15T10:28:17.476Z,18.70
2022-11-15T10:30:50.605Z,18.80
2022-11-15T10:33:37.896Z,18.35
2022-11-15T10:36:10.636Z,19.13
2022-11-15T10:38:49.201Z,18.33
2022-11-15T10:41:18.265Z,19.00
2022-11-15T10:43:45.762Z,17.92
2022-11-15T10:49:17.862Z,18.65
2022-11-15T10:54:44.663Z,17.50
2022-11-15T10:57:17.586Z,18.90
2022-11-15T10:59:50.864Z,17.73
2022-11-15T11:02:36.963Z,18.50
2022-11-15T11:05:06.786Z,19.38
2022-11-15T11:07:35.738Z,19.38
2022-11-15T11:10:49.191Z,20.20
2022-11-15T11:13:30.297Z,18.80
2022-11-15T11:15:56.748Z,17.90
2022-11-15T11:18:33.445Z,17.75
2022-11-15T11:21:07.919Z,18.17
2022-11-15T11:23:55.472Z,17.20
2022-11-15T11:26:41.971Z,18.42
2022-11-15T11:29:33.038Z,17.23
2022-11-15T11:32:20.647Z,18.67
2022-11-15T11:35:04.415Z,18.63
2022-11-15T11:38:07.810Z,17.98
2022-11-15T11:40:59.079Z,18.33
2022-11-15T11:43:40.765Z,18.65
2022-11-15T11:46:25.422Z,17.00
2022-11-15T11:49:05.138Z,18.25
2022-11-15T11:51:40.878Z,16.40
2022-11-15T11:54:29.307Z,18.30
2022-11-15T11:56:56.674Z,17.70
2022-11-15T12:02:23.798Z,15.98
2022-11-15T12:04:56.185Z,17.55
2022-11-15T12:07:28.864Z,16.35
2022-11-15T12:10:02.540Z,16.98
2022-11-15T12:12:43.226Z,16.20
2022-11-15T12:15:09.749Z,19.70
2022-11-15T12:17:38.059Z,17.20
2022-11-15T12:20:15.764Z,18.02
2022-11-15T12:22:48.427Z,17.15
2022-11-15T12:25:30.465Z,16.60
2022-11-15T12:28:02.755Z,15.90
2022-11-15T12:30:52.757Z,17.08
2022-11-15T12:33:31.222Z,15.65
2022-11-15T12:36:22.360Z,14.55
2022-11-15T12:38:48.950Z,18.10
2022-11-15T12:41:20.366Z,15.67
2022-11-15T12:43:49.543Z,15.32
2022-11-15T12:46:22.501Z,15.57
2022-11-15T12:48:52.698Z,15.80
2022-11-15T12:51:23.149Z,15.82
2022-11-15T12:53:49.716Z,15.70
2022-11-15T12:56:16.150Z,16.10
2022-11-15T12:59:06.245Z,14.93
2022-11-15T13:01:36.146Z,14.77
2022-11-15T13:04:29.648Z,16.58
2022-11-15T13:06:59.692Z,14.00
2022-11-15T13:09:35.217Z,14.05
2022-11-15T13:12:15.874Z,14.23
2022-11-15T13:15:00.008Z,15.45
2022-11-15T13:17:40.677Z,14.75
2022-11-15T13:20:07.155Z,13.80
2022-11-15T13:23:00.246Z,13.73
2022-11-15T13:25:45.188Z,13.88
2022-11-15T13:28:37.824Z,13.50
2022-11-15T13:31:28.432Z,14.32
2022-11-15T13:33:59.136Z,15.18
2022-11-15T13:36:29.795Z,15.23
2022-11-15T13:38:58.407Z,15.20
2022-11-15T13:41:27.967Z,15.77
2022-11-15T13:43:56.150Z,17.10
2022-11-15T13:46:34.042Z,20.70
2022-11-15T13:49:06.890Z,16.85
2022-11-15T13:51:53.249Z,16.20
2022-11-15T13:54:28.262Z,17.52
2022-11-15T13:56:59.730Z,17.00
2022-11-15T13:59:29.177Z,17.10
2022-11-15T14:02:00.449Z,16.60
2022-11-15T14:04:30.824Z,15.60
2022-11-15T14:06:59.735Z,16.20
2022-11-15T14:09:38.030Z,17.25
2022-11-15T14:12:24.600Z,20.05
2022-11-15T14:14:51.292Z,20.45
2022-11-15T14:17:31.504Z,23.88
2022-11-15T14:19:59.079Z,30.90
2022-11-15T14:22:27.063Z,37.35
2022-11-15T14:25:17.651Z,34.30
2022-11-15T14:27:46.260Z,20.23
2022-11-15T14:30:18.795Z,21.75
2022-11-15T14:32:48.715Z,24.30
2022-11-15T14:35:19.236Z,28.13
2022-11-15T14:37:46.542Z,33.67
2022-11-15T14:40:15.988Z,27.27
2022-11-15T14:42:43.519Z,27.30
2022-11-15T14:45:17.507Z,26.15
2022-11-15T14:47:44.765Z,33.65
2022-11-15T14:50:20.297Z,38.40
2022-11-15T14:52:48.143Z,37.47
2022-11-15T14:55:28.596Z,36.92
2022-11-15T14:57:56.302Z,35.03
2022-11-15T15:00:23.460Z,35.90
2022-11-15T15:02:53.639Z,30.10
2022-11-15T15:05:31.479Z,31.48
2022-11-15T15:07:58.370Z,32.30
2022-11-15T15:10:40.128Z,29.77
2022-11-15T15:13:32.084Z,30.80
2022-11-15T15:15:58.646Z,29.00
2022-11-15T15:18:25.185Z,29.57
2022-11-15T15:21:01.074Z,48.60
2022-11-15T15:23:30.252Z,41.50
2022-11-15T15:25:56.971Z,44.63
2022-11-15T15:28:23.637Z,45.08
2022-11-15T15:30:50.792Z,37.92
2022-11-15T15:33:17.457Z,33.88
2022-11-15T15:35:45.115Z,31.30
2022-11-15T15:38:16.400Z,32.78
2022-11-15T15:40:43.050Z,34.95
2022-11-15T15:43:10.242Z,28.55
2022-11-15T15:45:41.275Z,24.77
2022-11-15T15:48:13.718Z,24.67
2022-11-15T15:50:40.660Z,23.33
2022-11-15T15:53:09.094Z,37.75
2022-11-15T15:55:35.961Z,31.00
2022-11-15T15:58:02.514Z,25.27
2022-11-15T16:00:29.600Z,25.97
2022-11-15T16:02:56.369Z,26.08
2022-11-15T16:05:23.412Z,19.77
2022-11-15T16:07:50.119Z,19.50
2022-11-15T16:10:19.628Z,20.73
2022-11-15T16:12:47.518Z,23.60
2022-11-15T16:15:14.093Z,20.05
2022-11-15T16:17:49.419Z,25.75
2022-11-15T16:20:24.300Z,19.73
2022-11-15T16:22:50.881Z,20.38
2022-11-15T16:25:17.414Z,19.67
2022-11-15T16:27:45.982Z,22.17
2022-11-15T16:30:17.841Z,23.77
2022-11-15T16:32:44.642Z,25.60
2022-11-15T16:35:16.423Z,27.45
2022-11-15T16:37:44.970Z,29.95
2022-11-15T16:40:25.999Z,30.52
2022-11-15T16:42:52.572Z,25.75
2022-11-15T16:45:19.184Z,26.50
2022-11-15T16:47:45.711Z,25.47
2022-11-15T16:50:27.688Z,23.80
2022-11-15T16:52:56.134Z,25.30
2022-11-15T16:55:25.575Z,24.30
2022-11-15T16:57:52.632Z,23.52
2022-11-15T17:00:20.500Z,22.23
2022-11-15T17:02:49.107Z,22.75
2022-11-15T17:05:20.261Z,30.45
2022-11-15T17:07:54.184Z,31.55
2022-11-15T17:10:23.353Z,30.85
2022-11-15T17:12:50.513Z,27.15
2022-11-15T17:15:17.302Z,21.42
2022-11-15T17:17:44.941Z,20.77
2022-11-15T17:20:15.725Z,21.33
2022-11-15T17:22:42.449Z,20.55
2022-11-15T17:25:09.749Z,21.38
2022-11-15T17:27:36.490Z,21.23
2022-11-15T17:30:03.597Z,33.92
2022-11-15T17:32:30.086Z,21.90
2022-11-15T17:34:56.583Z,21.50
2022-11-15T17:37:23.230Z,39.60
2022-11-15T17:39:49.792Z,24.45
2022-11-15T17:42:16.358Z,24.30
2022-11-15T17:44:42.921Z,26.80
2022-11-15T17:47:09.459Z,24.80
2022-11-15T17:49:39.458Z,26.47
2022-11-15T17:52:06.283Z,23.13
2022-11-15T17:54:32.896Z,24.30
2022-11-15T17:56:59.450Z,26.98
2022-11-15T17:59:26.045Z,35.70
2022-11-15T18:01:54.065Z,29.88
2022-11-15T18:04:21.130Z,25.17
2022-11-15T18:06:47.781Z,24.13
2022-11-15T18:09:14.371Z,24.63
2022-11-15T18:11:43.185Z,24.57
2022-11-15T18:14:15.648Z,25.60
2022-11-15T18:16:42.802Z,22.30
2022-11-15T18:19:13.248Z,20.73
2022-11-15T18:21:57.294Z,21.20
2022-11-15T18:24:29.792Z,20.98
2022-11-15T18:26:57.255Z,20.02
2022-11-15T18:31:55.809Z,20.17
2022-11-15T18:34:23.989Z,20.38
2022-11-15T18:36:53.923Z,20.88
2022-11-15T18:39:20.773Z,20.85
2022-11-15T18:41:47.989Z,21.58
2022-11-15T18:44:15.364Z,21.55
2022-11-15T18:46:42.978Z,24.52
2022-11-15T18:49:10.872Z,28.33
2022-11-15T18:51:37.993Z,37.97
2022-11-15T18:54:04.892Z,39.65
2022-11-15T18:56:32.645Z,35.08
2022-11-15T18:59:02.037Z,35.38
2022-11-15T19:01:33.871Z,35.22
2022-11-15T19:04:11.621Z,30.77
2022-11-15T19:06:40.774Z,25.63
2022-11-15T19:09:08.661Z,23.60
2022-11-15T19:11:39.356Z,20.88
2022-11-15T19:14:08.561Z,18.95
2022-11-15T19:16:38.127Z,18.88
2022-11-15T19:19:07.275Z,20.63
2022-11-15T19:21:34.614Z,19.38
2022-11-15T19:24:01.553Z,18.73
2022-11-15T19:26:29.447Z,19.35
2022-11-15T19:28:58.480Z,20.33
2022-11-15T19:31:26.509Z,21.80
2022-11-15T19:33:53.943Z,19.67
2022-11-15T19:38:48.887Z,19.88
2022-11-15T19:41:20.688Z,19.38
2022-11-15T19:43:48.176Z,18.75
2022-11-15T19:46:15.432Z,20.52
2022-11-15T19:48:42.076Z,19.00
2022-11-15T19:51:12.093Z,19.80
2022-11-15T19:53:39.288Z,20.67
2022-11-15T19:56:08.351Z,19.67
2022-11-15T19:58:34.988Z,19.92
2022-11-15T20:01:05.719Z,20.30
2022-11-15T20:03:33.629Z,21.17
2022-11-15T20:06:05.153Z,20.77
2022-11-15T20:08:32.505Z,20.83
2022-11-15T20:11:00.109Z,21.58
2022-11-15T20:18:21.619Z,22.75
2022-11-15T20:20:48.750Z,22.70
2022-11-15T20:23:15.729Z,25.95
2022-11-15T20:25:46.576Z,26.73
2022-11-15T20:28:31.358Z,27.55
2022-11-15T20:31:00.231Z,30.88
2022-11-15T20:33:27.698Z,31.27
2022-11-15T20:38:21.819Z,26.55
2022-11-15T20:40:49.928Z,27.42
2022-11-15T20:43:19.210Z,28.20
2022-11-15T20:45:47.660Z,25.50
2022-11-15T20:48:14.947Z,26.02
2022-11-15T20:50:43.846Z,23.00
2022-11-15T20:53:13.851Z,22.90
2022-11-15T20:55:41.693Z,22.02
2022-11-15T20:58:09.733Z,21.73
2022-11-15T21:00:37.355Z,22.17
2022-11-15T21:03:06.992Z,23.13
2022-11-15T21:05:41.887Z,23.67
2022-11-15T21:08:09.761Z,23.65
2022-11-15T21:10:55.528Z,23.42
2022-11-15T21:13:22.658Z,23.83
2022-11-15T21:15:49.329Z,23.35
2022-11-15T21:18:16.369Z,23.10
2022-11-15T21:20:43.282Z,25.88
2022-11-15T21:23:10.243Z,20.33
2022-11-15T21:25:36.718Z,34.47
2022-11-15T21:28:03.494Z,35.37
2022-11-15T21:30:30.385Z,34.13
2022-11-15T21:32:56.979Z,32.55
2022-11-15T21:35:23.905Z,31.42
2022-11-15T21:37:56.110Z,31.13
2022-11-15T21:40:23.817Z,34.00
2022-11-15T21:42:50.654Z,31.98
2022-11-15T21:45:17.233Z,32.75
2022-11-15T21:47:46.392Z,32.03
2022-11-15T21:50:13.865Z,31.30
2022-11-15T21:52:40.827Z,31.35
2022-11-15T21:55:08.239Z,33.22
2022-11-15T21:57:34.849Z,33.70
2022-11-15T22:00:20.003Z,34.92
2022-11-15T22:02:46.554Z,35.08
2022-11-15T22:05:13.129Z,35.53
2022-11-15T22:07:39.747Z,36.07
2022-11-15T22:10:07.047Z,26.27
2022-11-15T22:12:33.577Z,35.92
2022-11-15T22:15:00.216Z,36.07
2022-11-15T22:17:46.813Z,35.83
2022-11-15T22:20:37.801Z,35.40
2022-11-15T22:23:00.233Z,36.05
2022-11-15T22:25:26.870Z,37.53
2022-11-15T22:27:53.946Z,37.78
2022-11-15T22:30:21.232Z,35.72
2022-11-15T22:32:47.899Z,39.47
2022-11-15T22:35:14.586Z,35.28
2022-11-15T22:37:41.327Z,38.38
2022-11-15T22:40:08.533Z,42.78
2022-11-15T22:42:35.135Z,41.83
2022-11-15T22:45:01.710Z,37.38
2022-11-15T22:47:28.238Z,36.43
2022-11-15T22:49:54.789Z,37.83
2022-11-15T22:52:21.406Z,38.77
2022-11-15T22:54:48.048Z,38.72
2022-11-15T22:57:14.656Z,36.45
2022-11-15T22:59:42.469Z,33.38
2022-11-15T23:02:09.119Z,35.42
2022-11-15T23:04:35.876Z,36.22
2022-11-15T23:07:02.468Z,36.30
2022-11-15T23:09:29.062Z,36.58
2022-11-15T23:12:14.162Z,38.28
2022-11-15T23:14:40.809Z,36.40
2022-11-15T23:17:07.368Z,36.80
2022-11-15T23:19:33.975Z,38.30
2022-11-15T23:22:19.251Z,38.03
2022-11-15T23:24:45.809Z,36.33
2022-11-15T23:27:15.380Z,37.60
2022-11-15T23:30:00.955Z,35.90
2022-11-15T23:32:45.763Z,38.40
2022-11-15T23:35:12.569Z,37.20
2022-11-15T23:37:39.285Z,35.90
2022-11-15T23:40:06.791Z,36.72
2022-11-15T23:42:33.387Z,35.50
2022-11-15T23:44:59.950Z,33.53
2022-11-15T23:47:26.498Z,34.23
2022-11-15T23:49:53.050Z,34.77
2022-11-15T23:52:19.679Z,37.58
2022-11-15T23:54:46.240Z,36.20
2022-11-15T23:57:12.940Z,34.47
2022-11-15T23:59:45.853Z,33.90
